sensor_id;sensor_type;location;lat;lon;timestamp;P1;durP1;ratioP1;P2;durP2;ratioP2
11496;SDS011;5805;51.542;7.230;2023-03-14T00:01:18;3.92;;;1.50;;
11496;SDS011;5805;51.542;7.230;2023-03-14T00:03:44;4.40;;;1.25;;
11496;SDS011;5805;51.542;7.230;2023-03-14T00:06:10;2.72;;;1.25;;
11496;SDS011;5805;51.542;7.230;2023-03-14T00:08:37;4.85;;;1.45;;
11496;SDS011;5805;51.542;7.230;2023-03-14T00:11:04;7.63;;;1.80;;
11496;SDS011;5805;51.542;7.230;2023-03-14T00:13:30;9.32;;;1.77;;
11496;SDS011;5805;51.542;7.230;2023-03-14T00:16:00;3.42;;;1.40;;
11496;SDS011;5805;51.542;7.230;2023-03-14T00:18:27;6.43;;;1.52;;
11496;SDS011;5805;51.542;7.230;2023-03-14T00:20:53;4.82;;;1.48;;
11496;SDS011;5805;51.542;7.230;2023-03-14T00:23:18;5.45;;;1.67;;
11496;SDS011;5805;51.542;7.230;2023-03-14T00:25:45;6.32;;;1.63;;
11496;SDS011;5805;51.542;7.230;2023-03-14T00:28:11;4.03;;;1.17;;
11496;SDS011;5805;51.542;7.230;2023-03-14T00:30:37;5.38;;;1.58;;
11496;SDS011;5805;51.542;7.230;2023-03-14T00:33:02;5.57;;;1.85;;
11496;SDS011;5805;51.542;7.230;2023-03-14T00:35:28;4.80;;;1.85;;
11496;SDS011;5805;51.542;7.230;2023-03-14T00:37:54;3.63;;;1.50;;
11496;SDS011;5805;51.542;7.230;2023-03-14T00:40:19;4.40;;;1.40;;
11496;SDS011;5805;51.542;7.230;2023-03-14T00:42:47;3.85;;;1.80;;
11496;SDS011;5805;51.542;7.230;2023-03-14T00:45:12;3.92;;;1.30;;
11496;SDS011;5805;51.542;7.230;2023-03-14T00:47:38;3.75;;;1.85;;
11496;SDS011;5805;51.542;7.230;2023-03-14T00:50:04;4.53;;;1.75;;
11496;SDS011;5805;51.542;7.230;2023-03-14T00:52:30;5.63;;;1.35;;
11496;SDS011;5805;51.542;7.230;2023-03-14T00:54:56;4.85;;;1.33;;
11496;SDS011;5805;51.542;7.230;2023-03-14T00:57:22;6.78;;;1.52;;
11496;SDS011;5805;51.542;7.230;2023-03-14T00:59:50;8.25;;;1.83;;
11496;SDS011;5805;51.542;7.230;2023-03-14T01:02:16;6.63;;;1.45;;
11496;SDS011;5805;51.542;7.230;2023-03-14T01:04:41;4.97;;;1.10;;
11496;SDS011;5805;51.542;7.230;2023-03-14T01:07:07;6.38;;;1.33;;
11496;SDS011;5805;51.542;7.230;2023-03-14T01:09:33;4.72;;;1.08;;
11496;SDS011;5805;51.542;7.230;2023-03-14T01:11:58;4.03;;;1.17;;
11496;SDS011;5805;51.542;7.230;2023-03-14T01:14:24;4.05;;;1.17;;
11496;SDS011;5805;51.542;7.230;2023-03-14T01:16:51;1.27;;;0.60;;
11496;SDS011;5805;51.542;7.230;2023-03-14T01:19:17;2.97;;;0.50;;
11496;SDS011;5805;51.542;7.230;2023-03-14T01:21:42;3.55;;;0.90;;
11496;SDS011;5805;51.542;7.230;2023-03-14T01:24:10;1.65;;;0.63;;
11496;SDS011;5805;51.542;7.230;2023-03-14T01:26:36;2.33;;;0.77;;
11496;SDS011;5805;51.542;7.230;2023-03-14T01:29:02;2.50;;;0.80;;
11496;SDS011;5805;51.542;7.230;2023-03-14T01:31:28;0.98;;;0.55;;
11496;SDS011;5805;51.542;7.230;2023-03-14T01:33:55;1.27;;;0.70;;
11496;SDS011;5805;51.542;7.230;2023-03-14T01:36:21;2.60;;;0.90;;
11496;SDS011;5805;51.542;7.230;2023-03-14T01:38:47;3.03;;;0.88;;
11496;SDS011;5805;51.542;7.230;2023-03-14T01:41:14;2.30;;;0.82;;
11496;SDS011;5805;51.542;7.230;2023-03-14T01:43:41;5.07;;;1.20;;
11496;SDS011;5805;51.542;7.230;2023-03-14T01:46:18;2.90;;;0.90;;
11496;SDS011;5805;51.542;7.230;2023-03-14T01:48:58;1.83;;;0.60;;
11496;SDS011;5805;51.542;7.230;2023-03-14T01:51:29;3.25;;;0.88;;
11496;SDS011;5805;51.542;7.230;2023-03-14T01:54:02;3.92;;;1.05;;
11496;SDS011;5805;51.542;7.230;2023-03-14T01:56:33;2.65;;;1.08;;
11496;SDS011;5805;51.542;7.230;2023-03-14T01:58:59;4.93;;;1.27;;
11496;SDS011;5805;51.542;7.230;2023-03-14T02:01:29;2.78;;;1.10;;
11496;SDS011;5805;51.542;7.230;2023-03-14T02:03:56;3.38;;;1.13;;
11496;SDS011;5805;51.542;7.230;2023-03-14T02:06:29;4.18;;;0.95;;
11496;SDS011;5805;51.542;7.230;2023-03-14T02:09:00;4.78;;;1.23;;
11496;SDS011;5805;51.542;7.230;2023-03-14T02:11:27;4.78;;;1.35;;
11496;SDS011;5805;51.542;7.230;2023-03-14T02:13:54;5.25;;;1.20;;
11496;SDS011;5805;51.542;7.230;2023-03-14T02:16:20;4.63;;;1.25;;
11496;SDS011;5805;51.542;7.230;2023-03-14T02:18:46;3.42;;;1.20;;
11496;SDS011;5805;51.542;7.230;2023-03-14T02:21:14;8.10;;;1.35;;
11496;SDS011;5805;51.542;7.230;2023-03-14T02:23:48;2.95;;;0.98;;
11496;SDS011;5805;51.542;7.230;2023-03-14T02:26:21;4.20;;;0.98;;
11496;SDS011;5805;51.542;7.230;2023-03-14T02:28:52;6.00;;;1.23;;
11496;SDS011;5805;51.542;7.230;2023-03-14T02:31:18;4.85;;;1.45;;
11496;SDS011;5805;51.542;7.230;2023-03-14T02:33:44;2.17;;;0.70;;
11496;SDS011;5805;51.542;7.230;2023-03-14T02:36:11;8.00;;;1.30;;
11496;SDS011;5805;51.542;7.230;2023-03-14T02:38:39;4.07;;;1.30;;
11496;SDS011;5805;51.542;7.230;2023-03-14T02:41:11;6.70;;;1.20;;
11496;SDS011;5805;51.542;7.230;2023-03-14T02:43:36;2.97;;;1.05;;
11496;SDS011;5805;51.542;7.230;2023-03-14T02:46:04;5.80;;;1.60;;
11496;SDS011;5805;51.542;7.230;2023-03-14T02:48:31;4.32;;;1.00;;
11496;SDS011;5805;51.542;7.230;2023-03-14T02:51:00;6.95;;;1.40;;
11496;SDS011;5805;51.542;7.230;2023-03-14T02:53:27;4.47;;;1.35;;
11496;SDS011;5805;51.542;7.230;2023-03-14T02:55:54;6.00;;;1.65;;
11496;SDS011;5805;51.542;7.230;2023-03-14T02:58:20;4.70;;;1.35;;
11496;SDS011;5805;51.542;7.230;2023-03-14T03:00:46;6.03;;;1.63;;
11496;SDS011;5805;51.542;7.230;2023-03-14T03:03:13;4.15;;;1.50;;
11496;SDS011;5805;51.542;7.230;2023-03-14T03:05:39;5.97;;;1.52;;
11496;SDS011;5805;51.542;7.230;2023-03-14T03:08:05;5.40;;;1.13;;
11496;SDS011;5805;51.542;7.230;2023-03-14T03:10:31;4.43;;;1.83;;
11496;SDS011;5805;51.542;7.230;2023-03-14T03:12:57;4.15;;;1.10;;
11496;SDS011;5805;51.542;7.230;2023-03-14T03:15:23;5.65;;;1.48;;
11496;SDS011;5805;51.542;7.230;2023-03-14T03:17:49;6.35;;;1.58;;
11496;SDS011;5805;51.542;7.230;2023-03-14T03:20:16;5.65;;;1.25;;
11496;SDS011;5805;51.542;7.230;2023-03-14T03:22:42;7.28;;;1.42;;
11496;SDS011;5805;51.542;7.230;2023-03-14T03:25:08;7.35;;;1.48;;
11496;SDS011;5805;51.542;7.230;2023-03-14T03:27:35;7.28;;;1.75;;
11496;SDS011;5805;51.542;7.230;2023-03-14T03:30:02;6.22;;;1.55;;
11496;SDS011;5805;51.542;7.230;2023-03-14T03:32:28;5.80;;;1.20;;
11496;SDS011;5805;51.542;7.230;2023-03-14T03:34:54;7.45;;;2.40;;
11496;SDS011;5805;51.542;7.230;2023-03-14T03:37:21;4.60;;;1.27;;
11496;SDS011;5805;51.542;7.230;2023-03-14T03:39:47;5.50;;;1.42;;
11496;SDS011;5805;51.542;7.230;2023-03-14T03:42:14;4.40;;;1.40;;
11496;SDS011;5805;51.542;7.230;2023-03-14T03:44:40;7.55;;;1.80;;
11496;SDS011;5805;51.542;7.230;2023-03-14T03:47:06;3.92;;;1.35;;
11496;SDS011;5805;51.542;7.230;2023-03-14T03:49:31;5.05;;;1.10;;
11496;SDS011;5805;51.542;7.230;2023-03-14T03:51:57;4.15;;;1.55;;
11496;SDS011;5805;51.542;7.230;2023-03-14T03:54:25;4.18;;;1.45;;
11496;SDS011;5805;51.542;7.230;2023-03-14T03:56:50;5.22;;;1.50;;
11496;SDS011;5805;51.542;7.230;2023-03-14T03:59:16;5.57;;;1.63;;
11496;SDS011;5805;51.542;7.230;2023-03-14T04:01:42;6.63;;;1.35;;
11496;SDS011;5805;51.542;7.230;2023-03-14T04:04:08;7.53;;;1.58;;
11496;SDS011;5805;51.542;7.230;2023-03-14T04:06:34;5.68;;;1.60;;
11496;SDS011;5805;51.542;7.230;2023-03-14T04:09:00;4.13;;;1.73;;
11496;SDS011;5805;51.542;7.230;2023-03-14T04:11:27;5.60;;;1.38;;
11496;SDS011;5805;51.542;7.230;2023-03-14T04:13:53;4.35;;;1.50;;
11496;SDS011;5805;51.542;7.230;2023-03-14T04:16:20;3.75;;;1.80;;
11496;SDS011;5805;51.542;7.230;2023-03-14T04:18:47;9.38;;;2.00;;
11496;SDS011;5805;51.542;7.230;2023-03-14T04:21:12;3.25;;;1.30;;
11496;SDS011;5805;51.542;7.230;2023-03-14T04:23:38;4.55;;;1.30;;
11496;SDS011;5805;51.542;7.230;2023-03-14T04:26:04;4.10;;;1.60;;
11496;SDS011;5805;51.542;7.230;2023-03-14T04:28:31;3.63;;;1.38;;
11496;SDS011;5805;51.542;7.230;2023-03-14T04:30:57;4.43;;;1.58;;
11496;SDS011;5805;51.542;7.230;2023-03-14T04:33:23;2.72;;;1.02;;
11496;SDS011;5805;51.542;7.230;2023-03-14T04:35:52;4.00;;;1.10;;
11496;SDS011;5805;51.542;7.230;2023-03-14T04:38:19;3.30;;;1.00;;
11496;SDS011;5805;51.542;7.230;2023-03-14T04:40:44;1.45;;;0.75;;
11496;SDS011;5805;51.542;7.230;2023-03-14T04:43:10;2.75;;;0.90;;
11496;SDS011;5805;51.542;7.230;2023-03-14T04:45:39;3.30;;;0.80;;
11496;SDS011;5805;51.542;7.230;2023-03-14T04:48:06;1.95;;;0.60;;
11496;SDS011;5805;51.542;7.230;2023-03-14T04:50:32;1.10;;;0.60;;
11496;SDS011;5805;51.542;7.230;2023-03-14T04:52:57;1.73;;;0.50;;
11496;SDS011;5805;51.542;7.230;2023-03-14T04:55:23;1.88;;;0.68;;
11496;SDS011;5805;51.542;7.230;2023-03-14T04:57:49;1.58;;;0.38;;
11496;SDS011;5805;51.542;7.230;2023-03-14T05:00:15;0.82;;;0.20;;
11496;SDS011;5805;51.542;7.230;2023-03-14T05:02:42;0.50;;;0.30;;
11496;SDS011;5805;51.542;7.230;2023-03-14T05:05:08;0.73;;;0.50;;
11496;SDS011;5805;51.542;7.230;2023-03-14T05:07:34;0.50;;;0.25;;
11496;SDS011;5805;51.542;7.230;2023-03-14T05:10:00;2.35;;;0.43;;
11496;SDS011;5805;51.542;7.230;2023-03-14T05:12:26;1.60;;;0.50;;
11496;SDS011;5805;51.542;7.230;2023-03-14T05:14:51;1.83;;;0.40;;
11496;SDS011;5805;51.542;7.230;2023-03-14T05:17:17;2.33;;;0.47;;
11496;SDS011;5805;51.542;7.230;2023-03-14T05:19:44;0.65;;;0.28;;
11496;SDS011;5805;51.542;7.230;2023-03-14T05:22:10;1.60;;;0.52;;
11496;SDS011;5805;51.542;7.230;2023-03-14T05:24:36;0.22;;;0.22;;
11496;SDS011;5805;51.542;7.230;2023-03-14T05:27:02;0.68;;;0.30;;
11496;SDS011;5805;51.542;7.230;2023-03-14T05:29:28;0.90;;;0.40;;
11496;SDS011;5805;51.542;7.230;2023-03-14T05:31:53;0.73;;;0.40;;
11496;SDS011;5805;51.542;7.230;2023-03-14T05:34:19;1.75;;;0.40;;
11496;SDS011;5805;51.542;7.230;2023-03-14T05:36:47;2.30;;;0.50;;
11496;SDS011;5805;51.542;7.230;2023-03-14T05:39:12;1.08;;;0.50;;
11496;SDS011;5805;51.542;7.230;2023-03-14T05:41:38;2.67;;;0.43;;
11496;SDS011;5805;51.542;7.230;2023-03-14T05:44:04;0.65;;;0.38;;
11496;SDS011;5805;51.542;7.230;2023-03-14T05:46:30;0.70;;;0.30;;
11496;SDS011;5805;51.542;7.230;2023-03-14T05:48:56;1.27;;;0.60;;
11496;SDS011;5805;51.542;7.230;2023-03-14T05:51:22;3.58;;;0.65;;
11496;SDS011;5805;51.542;7.230;2023-03-14T05:53:49;2.38;;;0.50;;
11496;SDS011;5805;51.542;7.230;2023-03-14T05:56:15;1.30;;;0.60;;
11496;SDS011;5805;51.542;7.230;2023-03-14T05:58:41;1.50;;;0.60;;
11496;SDS011;5805;51.542;7.230;2023-03-14T06:01:07;0.82;;;0.75;;
11496;SDS011;5805;51.542;7.230;2023-03-14T06:03:33;1.50;;;0.80;;
11496;SDS011;5805;51.542;7.230;2023-03-14T06:05:59;1.13;;;0.70;;
11496;SDS011;5805;51.542;7.230;2023-03-14T06:08:25;1.13;;;0.73;;
11496;SDS011;5805;51.542;7.230;2023-03-14T06:10:52;2.75;;;0.90;;
11496;SDS011;5805;51.542;7.230;2023-03-14T06:13:18;1.15;;;1.02;;
11496;SDS011;5805;51.542;7.230;2023-03-14T06:15:44;2.15;;;1.15;;
11496;SDS011;5805;51.542;7.230;2023-03-14T06:18:10;1.80;;;1.08;;
11496;SDS011;5805;51.542;7.230;2023-03-14T06:20:36;1.33;;;1.17;;
11496;SDS011;5805;51.542;7.230;2023-03-14T06:23:02;2.78;;;1.77;;
11496;SDS011;5805;51.542;7.230;2023-03-14T06:25:27;5.00;;;1.63;;
11496;SDS011;5805;51.542;7.230;2023-03-14T06:27:54;3.15;;;1.27;;
11496;SDS011;5805;51.542;7.230;2023-03-14T06:30:20;2.78;;;1.30;;
11496;SDS011;5805;51.542;7.230;2023-03-14T06:32:46;1.98;;;1.30;;
11496;SDS011;5805;51.542;7.230;2023-03-14T06:35:12;3.42;;;1.48;;
11496;SDS011;5805;51.542;7.230;2023-03-14T06:37:37;1.90;;;1.33;;
11496;SDS011;5805;51.542;7.230;2023-03-14T06:40:03;2.70;;;1.42;;
11496;SDS011;5805;51.542;7.230;2023-03-14T06:42:30;6.57;;;1.58;;
11496;SDS011;5805;51.542;7.230;2023-03-14T06:44:57;3.35;;;1.20;;
11496;SDS011;5805;51.542;7.230;2023-03-14T06:47:22;4.18;;;1.17;;
11496;SDS011;5805;51.542;7.230;2023-03-14T06:49:48;3.00;;;1.20;;
11496;SDS011;5805;51.542;7.230;2023-03-14T06:52:14;3.20;;;1.13;;
11496;SDS011;5805;51.542;7.230;2023-03-14T06:54:39;4.57;;;1.55;;
11496;SDS011;5805;51.542;7.230;2023-03-14T06:57:05;1.75;;;1.10;;
11496;SDS011;5805;51.542;7.230;2023-03-14T06:59:31;2.10;;;1.10;;
11496;SDS011;5805;51.542;7.230;2023-03-14T07:01:58;1.38;;;1.05;;
11496;SDS011;5805;51.542;7.230;2023-03-14T07:04:23;0.93;;;0.70;;
11496;SDS011;5805;51.542;7.230;2023-03-14T07:06:49;3.80;;;1.25;;
11496;SDS011;5805;51.542;7.230;2023-03-14T07:09:15;3.88;;;1.25;;
11496;SDS011;5805;51.542;7.230;2023-03-14T07:11:41;1.80;;;1.10;;
11496;SDS011;5805;51.542;7.230;2023-03-14T07:14:06;1.35;;;0.90;;
11496;SDS011;5805;51.542;7.230;2023-03-14T07:16:32;3.03;;;1.00;;
11496;SDS011;5805;51.542;7.230;2023-03-14T07:18:59;1.35;;;0.95;;
11496;SDS011;5805;51.542;7.230;2023-03-14T07:21:26;2.53;;;1.00;;
11496;SDS011;5805;51.542;7.230;2023-03-14T07:23:52;2.80;;;0.90;;
11496;SDS011;5805;51.542;7.230;2023-03-14T07:26:17;1.15;;;0.75;;
11496;SDS011;5805;51.542;7.230;2023-03-14T07:28:43;2.00;;;0.80;;
11496;SDS011;5805;51.542;7.230;2023-03-14T07:31:09;0.70;;;0.70;;
11496;SDS011;5805;51.542;7.230;2023-03-14T07:33:35;2.47;;;1.02;;
11496;SDS011;5805;51.542;7.230;2023-03-14T07:36:03;1.75;;;0.65;;
11496;SDS011;5805;51.542;7.230;2023-03-14T07:38:29;0.65;;;0.57;;
11496;SDS011;5805;51.542;7.230;2023-03-14T07:40:58;0.85;;;0.57;;
11496;SDS011;5805;51.542;7.230;2023-03-14T07:43:24;1.65;;;0.75;;
11496;SDS011;5805;51.542;7.230;2023-03-14T07:45:50;2.55;;;1.20;;
11496;SDS011;5805;51.542;7.230;2023-03-14T07:48:16;3.40;;;0.90;;
11496;SDS011;5805;51.542;7.230;2023-03-14T07:50:41;0.60;;;0.60;;
11496;SDS011;5805;51.542;7.230;2023-03-14T07:53:08;2.03;;;0.80;;
11496;SDS011;5805;51.542;7.230;2023-03-14T07:55:34;1.25;;;0.90;;
11496;SDS011;5805;51.542;7.230;2023-03-14T07:58:00;0.50;;;0.50;;
11496;SDS011;5805;51.542;7.230;2023-03-14T08:00:26;0.55;;;0.50;;
11496;SDS011;5805;51.542;7.230;2023-03-14T08:02:51;0.32;;;0.32;;
11496;SDS011;5805;51.542;7.230;2023-03-14T08:05:17;0.93;;;0.50;;
11496;SDS011;5805;51.542;7.230;2023-03-14T08:07:43;0.50;;;0.30;;
11496;SDS011;5805;51.542;7.230;2023-03-14T08:10:11;1.08;;;0.40;;
11496;SDS011;5805;51.542;7.230;2023-03-14T08:12:37;0.60;;;0.60;;
11496;SDS011;5805;51.542;7.230;2023-03-14T08:15:03;1.42;;;0.55;;
11496;SDS011;5805;51.542;7.230;2023-03-14T08:17:29;1.48;;;0.82;;
11496;SDS011;5805;51.542;7.230;2023-03-14T08:19:55;0.60;;;0.52;;
11496;SDS011;5805;51.542;7.230;2023-03-14T08:22:20;0.93;;;0.60;;
11496;SDS011;5805;51.542;7.230;2023-03-14T08:24:46;0.52;;;0.52;;
11496;SDS011;5805;51.542;7.230;2023-03-14T08:27:13;2.33;;;0.77;;
11496;SDS011;5805;51.542;7.230;2023-03-14T08:29:39;0.57;;;0.57;;
11496;SDS011;5805;51.542;7.230;2023-03-14T08:32:04;0.75;;;0.45;;
11496;SDS011;5805;51.542;7.230;2023-03-14T08:34:32;0.40;;;0.40;;
11496;SDS011;5805;51.542;7.230;2023-03-14T08:36:58;2.35;;;0.80;;
11496;SDS011;5805;51.542;7.230;2023-03-14T08:39:23;1.02;;;0.63;;
11496;SDS011;5805;51.542;7.230;2023-03-14T08:41:49;1.70;;;0.70;;
11496;SDS011;5805;51.542;7.230;2023-03-14T08:44:16;3.20;;;0.90;;
11496;SDS011;5805;51.542;7.230;2023-03-14T08:46:42;0.65;;;0.65;;
11496;SDS011;5805;51.542;7.230;2023-03-14T08:49:08;1.58;;;0.85;;
11496;SDS011;5805;51.542;7.230;2023-03-14T08:51:33;1.75;;;0.60;;
11496;SDS011;5805;51.542;7.230;2023-03-14T08:53:59;1.73;;;0.60;;
11496;SDS011;5805;51.542;7.230;2023-03-14T08:56:25;0.50;;;0.40;;
11496;SDS011;5805;51.542;7.230;2023-03-14T08:58:50;0.55;;;0.55;;
11496;SDS011;5805;51.542;7.230;2023-03-14T09:01:18;0.88;;;0.65;;
11496;SDS011;5805;51.542;7.230;2023-03-14T09:03:43;1.15;;;0.80;;
11496;SDS011;5805;51.542;7.230;2023-03-14T09:06:09;1.05;;;0.80;;
11496;SDS011;5805;51.542;7.230;2023-03-14T09:08:35;1.40;;;0.75;;
11496;SDS011;5805;51.542;7.230;2023-03-14T09:11:01;2.30;;;0.73;;
11496;SDS011;5805;51.542;7.230;2023-03-14T09:13:27;1.38;;;0.75;;
11496;SDS011;5805;51.542;7.230;2023-03-14T09:15:53;1.67;;;0.73;;
11496;SDS011;5805;51.542;7.230;2023-03-14T09:18:21;0.80;;;0.80;;
11496;SDS011;5805;51.542;7.230;2023-03-14T09:20:47;1.55;;;0.90;;
11496;SDS011;5805;51.542;7.230;2023-03-14T09:23:13;0.60;;;0.60;;
11496;SDS011;5805;51.542;7.230;2023-03-14T09:25:39;0.68;;;0.68;;
11496;SDS011;5805;51.542;7.230;2023-03-14T09:28:05;1.45;;;1.15;;
11496;SDS011;5805;51.542;7.230;2023-03-14T09:30:31;5.80;;;0.90;;
11496;SDS011;5805;51.542;7.230;2023-03-14T09:32:56;7.78;;;1.90;;
11496;SDS011;5805;51.542;7.230;2023-03-14T09:35:23;5.63;;;1.33;;
11496;SDS011;5805;51.542;7.230;2023-03-14T09:37:49;0.90;;;0.70;;
11496;SDS011;5805;51.542;7.230;2023-03-14T09:40:16;1.33;;;0.95;;
11496;SDS011;5805;51.542;7.230;2023-03-14T09:42:42;0.88;;;0.63;;
11496;SDS011;5805;51.542;7.230;2023-03-14T09:45:11;2.78;;;0.43;;
11496;SDS011;5805;51.542;7.230;2023-03-14T09:47:50;0.68;;;0.40;;
11496;SDS011;5805;51.542;7.230;2023-03-14T09:50:16;0.47;;;0.45;;
11496;SDS011;5805;51.542;7.230;2023-03-14T09:52:44;1.85;;;0.50;;
11496;SDS011;5805;51.542;7.230;2023-03-14T09:55:13;0.70;;;0.50;;
11496;SDS011;5805;51.542;7.230;2023-03-14T09:57:42;0.95;;;0.50;;
11496;SDS011;5805;51.542;7.230;2023-03-14T10:00:13;1.55;;;0.50;;
11496;SDS011;5805;51.542;7.230;2023-03-14T10:02:41;1.52;;;0.50;;
11496;SDS011;5805;51.542;7.230;2023-03-14T10:05:13;0.43;;;0.40;;
11496;SDS011;5805;51.542;7.230;2023-03-14T10:07:40;0.63;;;0.30;;
11496;SDS011;5805;51.542;7.230;2023-03-14T10:10:10;1.30;;;0.30;;
11496;SDS011;5805;51.542;7.230;2023-03-14T10:12:38;0.65;;;0.35;;
11496;SDS011;5805;51.542;7.230;2023-03-14T10:15:05;1.50;;;0.50;;
11496;SDS011;5805;51.542;7.230;2023-03-14T10:17:38;0.70;;;0.50;;
11496;SDS011;5805;51.542;7.230;2023-03-14T10:20:05;1.10;;;0.70;;
11496;SDS011;5805;51.542;7.230;2023-03-14T10:22:31;0.65;;;0.65;;
11496;SDS011;5805;51.542;7.230;2023-03-14T10:25:00;1.58;;;0.93;;
11496;SDS011;5805;51.542;7.230;2023-03-14T10:27:30;1.02;;;0.93;;
11496;SDS011;5805;51.542;7.230;2023-03-14T10:29:57;3.05;;;1.35;;
11496;SDS011;5805;51.542;7.230;2023-03-14T10:32:28;2.63;;;2.10;;
11496;SDS011;5805;51.542;7.230;2023-03-14T10:35:06;2.83;;;0.93;;
11496;SDS011;5805;51.542;7.230;2023-03-14T10:37:47;0.73;;;0.50;;
11496;SDS011;5805;51.542;7.230;2023-03-14T10:40:15;0.68;;;0.40;;
11496;SDS011;5805;51.542;7.230;2023-03-14T10:42:45;2.25;;;0.52;;
11496;SDS011;5805;51.542;7.230;2023-03-14T10:45:22;2.25;;;0.43;;
11496;SDS011;5805;51.542;7.230;2023-03-14T10:48:06;0.75;;;0.70;;
11496;SDS011;5805;51.542;7.230;2023-03-14T10:50:48;3.00;;;0.70;;
11496;SDS011;5805;51.542;7.230;2023-03-14T10:53:16;0.20;;;0.20;;
11496;SDS011;5805;51.542;7.230;2023-03-14T10:55:43;1.25;;;0.60;;
11496;SDS011;5805;51.542;7.230;2023-03-14T10:58:23;1.98;;;0.60;;
11496;SDS011;5805;51.542;7.230;2023-03-14T11:00:57;1.33;;;0.50;;
11496;SDS011;5805;51.542;7.230;2023-03-14T11:03:28;0.70;;;0.50;;
11496;SDS011;5805;51.542;7.230;2023-03-14T11:05:57;1.65;;;0.55;;
11496;SDS011;5805;51.542;7.230;2023-03-14T11:08:27;0.60;;;0.50;;
11496;SDS011;5805;51.542;7.230;2023-03-14T11:11:03;2.45;;;0.73;;
11496;SDS011;5805;51.542;7.230;2023-03-14T11:13:38;2.20;;;0.40;;
11496;SDS011;5805;51.542;7.230;2023-03-14T11:16:09;0.73;;;0.47;;
11496;SDS011;5805;51.542;7.230;2023-03-14T11:18:49;1.50;;;0.55;;
11496;SDS011;5805;51.542;7.230;2023-03-14T11:21:22;2.40;;;0.90;;
11496;SDS011;5805;51.542;7.230;2023-03-14T11:23:56;0.95;;;0.85;;
11496;SDS011;5805;51.542;7.230;2023-03-14T11:26:41;2.10;;;0.80;;
11496;SDS011;5805;51.542;7.230;2023-03-14T11:29:15;0.50;;;0.50;;
11496;SDS011;5805;51.542;7.230;2023-03-14T11:31:45;1.65;;;0.70;;
11496;SDS011;5805;51.542;7.230;2023-03-14T11:34:13;0.93;;;0.85;;
11496;SDS011;5805;51.542;7.230;2023-03-14T11:36:44;1.10;;;0.65;;
11496;SDS011;5805;51.542;7.230;2023-03-14T11:39:16;2.00;;;0.82;;
11496;SDS011;5805;51.542;7.230;2023-03-14T11:41:44;0.80;;;0.57;;
11496;SDS011;5805;51.542;7.230;2023-03-14T11:44:14;1.27;;;0.70;;
11496;SDS011;5805;51.542;7.230;2023-03-14T11:46:46;0.50;;;0.50;;
11496;SDS011;5805;51.542;7.230;2023-03-14T11:49:17;1.55;;;0.45;;
11496;SDS011;5805;51.542;7.230;2023-03-14T11:51:52;1.10;;;0.60;;
11496;SDS011;5805;51.542;7.230;2023-03-14T11:54:22;1.75;;;0.60;;
11496;SDS011;5805;51.542;7.230;2023-03-14T11:56:57;1.10;;;0.60;;
11496;SDS011;5805;51.542;7.230;2023-03-14T11:59:28;1.65;;;0.50;;
11496;SDS011;5805;51.542;7.230;2023-03-14T12:01:59;1.35;;;0.50;;
11496;SDS011;5805;51.542;7.230;2023-03-14T12:04:31;0.80;;;0.40;;
11496;SDS011;5805;51.542;7.230;2023-03-14T12:07:07;1.15;;;0.60;;
11496;SDS011;5805;51.542;7.230;2023-03-14T12:09:38;1.33;;;0.90;;
11496;SDS011;5805;51.542;7.230;2023-03-14T12:12:04;0.98;;;0.75;;
11496;SDS011;5805;51.542;7.230;2023-03-14T12:14:33;3.60;;;0.93;;
11496;SDS011;5805;51.542;7.230;2023-03-14T12:17:03;2.20;;;0.90;;
11496;SDS011;5805;51.542;7.230;2023-03-14T12:19:32;1.73;;;0.73;;
11496;SDS011;5805;51.542;7.230;2023-03-14T12:22:01;3.03;;;0.98;;
11496;SDS011;5805;51.542;7.230;2023-03-14T12:24:33;1.65;;;0.70;;
11496;SDS011;5805;51.542;7.230;2023-03-14T12:27:01;3.70;;;1.20;;
11496;SDS011;5805;51.542;7.230;2023-03-14T12:29:28;2.20;;;0.70;;
11496;SDS011;5805;51.542;7.230;2023-03-14T12:34:48;2.38;;;0.55;;
11496;SDS011;5805;51.542;7.230;2023-03-14T12:37:17;4.13;;;1.17;;
11496;SDS011;5805;51.542;7.230;2023-03-14T12:40:01;3.47;;;0.90;;
11496;SDS011;5805;51.542;7.230;2023-03-14T12:42:38;4.03;;;1.10;;
11496;SDS011;5805;51.542;7.230;2023-03-14T12:48:04;2.53;;;0.80;;
11496;SDS011;5805;51.542;7.230;2023-03-14T12:50:36;4.70;;;1.13;;
11496;SDS011;5805;51.542;7.230;2023-03-14T12:56:04;3.88;;;1.10;;
11496;SDS011;5805;51.542;7.230;2023-03-14T12:58:37;5.20;;;1.08;;
11496;SDS011;5805;51.542;7.230;2023-03-14T13:01:05;3.53;;;0.95;;
11496;SDS011;5805;51.542;7.230;2023-03-14T13:03:39;3.00;;;0.90;;
11496;SDS011;5805;51.542;7.230;2023-03-14T13:06:09;4.80;;;1.40;;
11496;SDS011;5805;51.542;7.230;2023-03-14T13:08:37;4.60;;;1.50;;
11496;SDS011;5805;51.542;7.230;2023-03-14T13:11:05;4.63;;;1.42;;
11496;SDS011;5805;51.542;7.230;2023-03-14T13:13:34;4.22;;;1.20;;
11496;SDS011;5805;51.542;7.230;2023-03-14T13:16:01;6.82;;;1.75;;
11496;SDS011;5805;51.542;7.230;2023-03-14T13:18:29;4.60;;;1.60;;
11496;SDS011;5805;51.542;7.230;2023-03-14T13:21:01;5.50;;;1.52;;
11496;SDS011;5805;51.542;7.230;2023-03-14T13:23:31;5.25;;;1.73;;
11496;SDS011;5805;51.542;7.230;2023-03-14T13:25:59;6.15;;;1.40;;
11496;SDS011;5805;51.542;7.230;2023-03-14T13:28:26;8.40;;;1.75;;
11496;SDS011;5805;51.542;7.230;2023-03-14T13:30:54;5.75;;;1.50;;
11496;SDS011;5805;51.542;7.230;2023-03-14T13:33:22;7.25;;;1.60;;
11496;SDS011;5805;51.542;7.230;2023-03-14T13:35:49;5.18;;;1.75;;
11496;SDS011;5805;51.542;7.230;2023-03-14T13:38:22;9.85;;;2.40;;
11496;SDS011;5805;51.542;7.230;2023-03-14T13:40:49;7.60;;;1.90;;
11496;SDS011;5805;51.542;7.230;2023-03-14T13:43:17;8.65;;;2.15;;
11496;SDS011;5805;51.542;7.230;2023-03-14T13:45:46;9.23;;;2.03;;
11496;SDS011;5805;51.542;7.230;2023-03-14T13:48:15;9.13;;;1.90;;
11496;SDS011;5805;51.542;7.230;2023-03-14T13:50:44;12.80;;;2.35;;
11496;SDS011;5805;51.542;7.230;2023-03-14T13:53:11;8.68;;;2.33;;
11496;SDS011;5805;51.542;7.230;2023-03-14T13:55:38;8.40;;;2.20;;
11496;SDS011;5805;51.542;7.230;2023-03-14T13:58:04;11.25;;;2.67;;
11496;SDS011;5805;51.542;7.230;2023-03-14T14:00:30;12.50;;;2.40;;
11496;SDS011;5805;51.542;7.230;2023-03-14T14:02:56;11.93;;;2.97;;
11496;SDS011;5805;51.542;7.230;2023-03-14T14:05:25;11.32;;;2.75;;
11496;SDS011;5805;51.542;7.230;2023-03-14T14:07:52;13.05;;;2.45;;
11496;SDS011;5805;51.542;7.230;2023-03-14T14:10:18;10.10;;;2.65;;
11496;SDS011;5805;51.542;7.230;2023-03-14T14:12:47;14.57;;;2.20;;
11496;SDS011;5805;51.542;7.230;2023-03-14T14:15:16;12.90;;;3.28;;
11496;SDS011;5805;51.542;7.230;2023-03-14T14:17:45;7.75;;;2.30;;
11496;SDS011;5805;51.542;7.230;2023-03-14T14:20:16;9.32;;;2.10;;
11496;SDS011;5805;51.542;7.230;2023-03-14T14:22:51;11.55;;;2.97;;
11496;SDS011;5805;51.542;7.230;2023-03-14T14:25:18;11.65;;;2.42;;
11496;SDS011;5805;51.542;7.230;2023-03-14T14:27:46;6.93;;;1.83;;
11496;SDS011;5805;51.542;7.230;2023-03-14T14:30:25;8.32;;;2.10;;
11496;SDS011;5805;51.542;7.230;2023-03-14T14:33:06;10.63;;;2.67;;
11496;SDS011;5805;51.542;7.230;2023-03-14T14:35:37;11.45;;;2.50;;
11496;SDS011;5805;51.542;7.230;2023-03-14T14:38:03;6.90;;;1.48;;
11496;SDS011;5805;51.542;7.230;2023-03-14T14:40:40;14.00;;;2.10;;
11496;SDS011;5805;51.542;7.230;2023-03-14T14:43:12;10.23;;;1.80;;
11496;SDS011;5805;51.542;7.230;2023-03-14T14:45:42;10.00;;;2.35;;
11496;SDS011;5805;51.542;7.230;2023-03-14T14:48:10;6.97;;;1.45;;
11496;SDS011;5805;51.542;7.230;2023-03-14T14:50:54;4.82;;;1.48;;
11496;SDS011;5805;51.542;7.230;2023-03-14T14:53:24;8.50;;;1.60;;
11496;SDS011;5805;51.542;7.230;2023-03-14T14:55:54;5.93;;;1.55;;
11496;SDS011;5805;51.542;7.230;2023-03-14T14:58:24;7.40;;;1.60;;
11496;SDS011;5805;51.542;7.230;2023-03-14T15:00:53;6.00;;;1.90;;
11496;SDS011;5805;51.542;7.230;2023-03-14T15:03:21;6.47;;;1.58;;
11496;SDS011;5805;51.542;7.230;2023-03-14T15:05:47;6.90;;;1.52;;
11496;SDS011;5805;51.542;7.230;2023-03-14T15:08:13;7.03;;;1.67;;
11496;SDS011;5805;51.542;7.230;2023-03-14T15:10:39;6.32;;;1.92;;
11496;SDS011;5805;51.542;7.230;2023-03-14T15:13:04;6.10;;;1.35;;